Time;durP1;ratioP1;P1;durP2;ratioP2;P2;SDS_P1;SDS_P2;PMS_P1;PMS_P2;Temp;Humidity;BMP_temperature;BMP_pressure;BME280_temperature;BME280_humidity;BME280_pressure;Samples;Min_cycle;Max_cycle;Signal;HPM_P1;HPM_P2
2023/09/01 00:01:45;;;;;;;10.73;2.75;;;;;;;15.95;89.13;100334.06;4917825;29;20099;-64
2023/09/01 00:05:16;;;;;;;8.55;2.15;;;;;;;15.92;89.26;100344.00;4917432;29;20059;-64
2023/09/01 00:08:19;;;;;;;11.00;2.33;;;;;;;15.92;89.50;100333.44;4917372;29;20051;-64
2023/09/01 00:11:23;;;;;;;10.95;2.85;;;;;;;15.85;89.40;100335.72;4917265;29;20082;-63
2023/09/01 00:14:26;;;;;;;9.15;2.60;;;;;;;15.88;89.16;100330.22;4917299;29;20042;-64
2023/09/01 00:17:29;;;;;;;6.22;2.25;;;;;;;15.92;89.08;100323.75;4905682;29;20043;-64
2023/09/01 00:20:36;;;;;;;10.07;2.50;;;;;;;15.99;88.80;100319.69;4916932;29;20043;-64
2023/09/01 00:23:40;;;;;;;7.25;2.22;;;;;;;15.93;88.99;100312.25;4916618;29;20050;-64
2023/09/01 00:26:43;;;;;;;5.05;2.38;;;;;;;15.89;88.79;100310.81;4897627;29;20124;-64
2023/09/01 00:29:46;;;;;;;7.00;2.47;;;;;;;15.86;88.82;100310.19;4902434;29;20486;-64
2023/09/01 00:32:49;;;;;;;7.15;2.90;;;;;;;15.83;89.20;100306.03;4914994;29;20520;-64
2023/09/01 00:35:54;;;;;;;8.43;2.50;;;;;;;15.82;89.54;100304.31;4915502;29;20050;-64
2023/09/01 00:38:58;;;;;;;8.77;2.90;;;;;;;15.79;89.89;100302.78;4904087;29;20401;-64
2023/09/01 00:42:02;;;;;;;6.75;2.25;;;;;;;15.76;90.67;100296.88;4902118;29;20046;-64
2023/09/01 00:45:06;;;;;;;6.30;2.17;;;;;;;15.76;90.86;100299.53;4902710;29;20552;-64
2023/09/01 00:48:11;;;;;;;7.53;2.30;;;;;;;15.68;91.49;100294.03;4897472;29;20055;-64
2023/09/01 00:51:14;;;;;;;6.60;3.28;;;;;;;15.69;91.25;100304.44;4903622;29;20043;-63
2023/09/01 00:54:19;;;;;;;6.55;2.08;;;;;;;15.75;90.33;100293.41;4913365;29;20561;-64
2023/09/01 00:57:22;;;;;;;10.93;3.33;;;;;;;15.78;89.81;100284.44;4913356;29;20074;-64
2023/09/01 01:00:25;;;;;;;5.40;2.35;;;;;;;15.74;90.47;100280.38;4902163;29;20099;-64
2023/09/01 01:03:29;;;;;;;7.28;2.33;;;;;;;15.78;89.60;100281.81;4914741;29;20106;-64
2023/09/01 01:06:52;;;;;;;8.45;2.45;;;;;;;15.75;90.16;100287.31;4914751;29;20132;-64
2023/09/01 01:10:06;;;;;;;6.22;2.42;;;;;;;15.77;89.77;100302.06;4915220;29;20102;-64
2023/09/01 01:13:13;;;;;;;5.78;2.17;;;;;;;15.81;89.64;100300.00;4914384;29;20046;-64
2023/09/01 01:16:17;;;;;;;6.22;2.35;;;;;;;15.81;89.63;100292.94;4903061;29;20657;-64
2023/09/01 01:19:49;;;;;;;6.35;2.58;;;;;;;15.87;89.36;100291.63;4915789;29;20560;-64
2023/09/01 01:23:09;;;;;;;9.80;2.58;;;;;;;15.82;90.03;100291.13;4902842;29;20050;-64
2023/09/01 01:26:16;;;;;;;6.85;2.55;;;;;;;15.84;90.18;100291.88;4902265;29;20634;-64
2023/09/01 01:29:19;;;;;;;7.38;2.30;;;;;;;15.86;89.65;100289.97;4915573;29;20050;-65
2023/09/01 01:32:23;;;;;;;6.18;2.35;;;;;;;15.83;89.87;100282.28;4912919;29;20043;-65
2023/09/01 01:35:39;;;;;;;10.38;3.05;;;;;;;15.81;89.88;100271.84;4901837;29;20523;-64
2023/09/01 01:38:48;;;;;;;6.15;2.38;;;;;;;15.76;90.15;100276.66;4913117;29;20154;-64
2023/09/01 01:41:56;;;;;;;7.57;2.65;;;;;;;15.78;90.47;100281.81;4914480;29;20099;-65
2023/09/01 01:45:00;;;;;;;7.10;2.45;;;;;;;15.75;91.27;100271.50;4903452;29;20047;-65
2023/09/01 01:48:04;;;;;;;9.25;2.33;;;;;;;15.75;91.30;100279.41;4915875;29;20179;-65
2023/09/01 01:51:07;;;;;;;7.53;2.38;;;;;;;15.75;91.32;100282.03;4911293;29;20051;-65
2023/09/01 01:54:10;;;;;;;6.60;1.98;;;;;;;15.76;91.37;100288.97;4915415;29;20051;-65
2023/09/01 01:57:14;;;;;;;9.48;2.80;;;;;;;15.77;91.21;100288.03;4915499;29;20051;-62
2023/09/01 02:00:19;;;;;;;6.05;2.53;;;;;;;15.74;91.33;100283.84;4904144;29;20546;-62
2023/09/01 02:03:22;;;;;;;7.13;2.60;;;;;;;15.76;91.78;100283.72;4915616;29;20475;-62
2023/09/01 02:06:25;;;;;;;8.45;2.70;;;;;;;15.75;91.98;100282.03;4903148;29;20047;-62
2023/09/01 02:09:29;;;;;;;7.05;2.35;;;;;;;15.77;92.36;100269.59;4915374;29;20050;-62
2023/09/01 02:12:35;;;;;;;4.68;2.25;;;;;;;15.76;92.93;100275.78;4914947;29;20107;-62
2023/09/01 02:15:39;;;;;;;10.63;2.85;;;;;;;15.78;92.90;100273.88;4903482;29;20140;-62
2023/09/01 02:18:42;;;;;;;8.63;2.30;;;;;;;15.81;92.64;100276.28;4904024;29;20047;-62
2023/09/01 02:21:46;;;;;;;9.50;2.83;;;;;;;15.82;92.45;100272.69;4915110;29;20099;-62
2023/09/01 02:24:49;;;;;;;6.88;2.45;;;;;;;15.74;93.15;100280.38;4914330;29;20135;-62
2023/09/01 02:27:53;;;;;;;9.32;2.72;;;;;;;15.74;93.47;100280.38;4914561;29;20051;-62
2023/09/01 02:30:56;;;;;;;5.60;2.35;;;;;;;15.73;93.35;100287.44;4915171;29;20043;-62
2023/09/01 02:33:59;;;;;;;10.93;2.33;;;;;;;15.69;93.94;100278.06;4915494;29;20574;-62
2023/09/01 02:37:03;;;;;;;8.90;2.67;;;;;;;15.71;93.97;100285.88;4914720;29;20158;-62
2023/09/01 02:40:10;;;;;;;9.80;3.08;;;;;;;15.74;93.62;100289.13;4903270;29;20054;-62
2023/09/01 02:43:13;;;;;;;5.43;2.38;;;;;;;15.69;94.07;100282.50;4905675;29;20467;-62
2023/09/01 02:46:17;;;;;;;4.95;2.47;;;;;;;15.73;93.82;100276.03;4917857;29;20138;-62
2023/09/01 02:49:20;;;;;;;9.00;2.63;;;;;;;15.74;94.15;100286.47;4906806;29;20090;-62
2023/09/01 02:52:23;;;;;;;8.20;2.80;;;;;;;15.71;94.73;100285.88;4906812;29;20047;-62
2023/09/01 02:55:27;;;;;;;5.57;2.00;;;;;;;15.65;95.11;100278.41;4918642;29;20116;-62
2023/09/01 02:58:31;;;;;;;7.40;2.58;;;;;;;15.51;96.68;100292.66;4918511;29;20130;-62
2023/09/01 03:01:35;;;;;;;6.20;2.50;;;;;;;15.49;96.91;100287.50;4918685;29;20135;-62
2023/09/01 03:04:38;;;;;;;8.70;3.35;;;;;;;15.43;98.19;100285.31;4918387;29;20134;-62
2023/09/01 03:07:41;;;;;;;7.80;2.38;;;;;;;15.53;98.43;100288.94;4906120;29;20043;-62
2023/09/01 03:10:45;;;;;;;6.88;2.05;;;;;;;15.60;98.00;100281.38;4905972;29;20054;-62
2023/09/01 03:13:49;;;;;;;6.25;2.33;;;;;;;15.63;97.44;100277.69;4905709;29;20180;-62
2023/09/01 03:16:52;;;;;;;6.88;2.55;;;;;;;15.62;97.54;100271.56;4905865;29;20099;-62
2023/09/01 03:19:55;;;;;;;5.45;2.08;;;;;;;15.64;98.02;100274.09;4906394;29;20096;-62
2023/09/01 03:22:59;;;;;;;8.65;2.70;;;;;;;15.64;97.79;100272.31;4918251;29;20063;-62
2023/09/01 03:26:05;;;;;;;6.13;2.35;;;;;;;15.62;97.14;100270.75;4906713;29;20116;-62
2023/09/01 03:29:08;;;;;;;6.28;2.20;;;;;;;15.63;97.31;100270.59;4905609;29;20051;-62
2023/09/01 03:32:12;;;;;;;5.25;2.25;;;;;;;15.59;97.45;100272.66;4918416;29;20059;-62
2023/09/01 03:35:15;;;;;;;6.53;2.42;;;;;;;15.59;97.72;100270.00;4918139;29;20078;-62
2023/09/01 03:38:19;;;;;;;7.20;2.63;;;;;;;15.58;98.47;100267.50;4906156;29;20462;-62
2023/09/01 03:41:23;;;;;;;7.03;2.20;;;;;;;15.57;98.74;100269.31;4906268;29;20086;-62
2023/09/01 03:44:27;;;;;;;10.23;2.40;;;;;;;15.52;98.20;100276.72;4905992;29;20126;-62
2023/09/01 03:47:31;;;;;;;6.95;2.55;;;;;;;15.49;98.82;100279.59;4917160;29;20514;-63
2023/09/01 03:50:34;;;;;;;7.30;2.90;;;;;;;15.55;97.97;100271.22;4906118;29;20042;-62
2023/09/01 03:53:38;;;;;;;6.60;2.33;;;;;;;15.61;98.00;100271.72;4917040;29;20107;-63
2023/09/01 03:56:41;;;;;;;6.18;2.33;;;;;;;15.57;97.84;100277.22;4905971;29;20525;-68
2023/09/01 03:59:47;;;;;;;5.72;2.20;;;;;;;15.55;98.73;100275.66;4905896;29;20103;-63
2023/09/01 04:02:50;;;;;;;6.97;2.13;;;;;;;15.55;99.86;100273.84;4905509;29;20521;-62
2023/09/01 04:05:57;;;;;;;5.93;2.90;;;;;;;15.54;99.93;100273.97;4917274;29;20103;-62
2023/09/01 04:09:01;;;;;;;7.80;2.53;;;;;;;15.59;99.69;100270.00;4894468;29;20071;-62
2023/09/01 04:12:05;;;;;;;6.43;2.30;;;;;;;15.61;99.90;100274.34;4916985;29;20068;-63
2023/09/01 04:15:09;;;;;;;6.90;2.75;;;;;;;15.59;99.67;100267.38;4905374;29;20107;-63
2023/09/01 04:18:15;;;;;;;9.73;2.53;;;;;;;15.56;99.93;100267.59;4905501;29;20504;-62
2023/09/01 04:21:18;;;;;;;6.55;2.47;;;;;;;15.50;100.00;100277.78;4916952;29;20581;-62
2023/09/01 04:24:22;;;;;;;5.15;2.22;;;;;;;15.47;100.00;100281.50;4916951;29;20055;-62
2023/09/01 04:27:25;;;;;;;6.80;2.58;;;;;;;15.46;100.00;100279.00;4905220;29;20111;-62
2023/09/01 04:30:30;;;;;;;5.15;2.30;;;;;;;15.45;100.00;100264.97;4904556;29;20518;-62
2023/09/01 04:33:34;;;;;;;5.72;2.75;;;;;;;15.51;100.00;100263.69;4915787;29;20123;-63
2023/09/01 04:36:38;;;;;;;7.82;3.20;;;;;;;15.54;100.00;100261.63;4904850;29;20109;-62
2023/09/01 04:39:42;;;;;;;11.50;2.80;;;;;;;15.54;100.00;100264.28;4917023;29;20054;-63
2023/09/01 04:42:47;;;;;;;7.47;3.47;;;;;;;15.53;100.00;100269.66;4916470;29;20054;-63
2023/09/01 04:45:55;;;;;;;6.90;2.83;;;;;;;15.51;100.00;100279.50;4892911;29;20055;-64
2023/09/01 04:48:59;;;;;;;5.72;2.63;;;;;;;15.55;100.00;100268.56;4903973;29;20055;-64
2023/09/01 04:52:04;;;;;;;6.43;2.55;;;;;;;15.51;100.00;100269.78;4901945;29;20050;-64
2023/09/01 04:55:10;;;;;;;10.07;2.55;;;;;;;15.61;100.00;100266.44;4901948;29;20066;-64
2023/09/01 04:58:13;;;;;;;4.90;2.50;;;;;;;15.58;100.00;100275.41;4901345;29;20505;-64
2023/09/01 05:01:18;;;;;;;5.65;2.55;;;;;;;15.59;100.00;100279.72;4912920;29;20047;-64
2023/09/01 05:04:22;;;;;;;9.80;2.50;;;;;;;15.61;100.00;100284.88;4884636;29;20474;-64
2023/09/01 05:07:25;;;;;;;5.57;2.50;;;;;;;15.59;100.00;100285.81;4884190;29;20159;-64
2023/09/01 05:10:29;;;;;;;4.97;2.15;;;;;;;15.57;100.00;100292.16;4883727;29;20100;-64
2023/09/01 05:13:33;;;;;;;5.53;2.40;;;;;;;15.51;100.00;100298.75;4895398;29;20051;-70
2023/09/01 05:16:36;;;;;;;5.38;2.20;;;;;;;15.48;100.00;100295.53;4884069;29;20058;-64
2023/09/01 05:19:40;;;;;;;6.70;2.42;;;;;;;15.61;100.00;100305.97;4884185;29;20130;-64
2023/09/01 05:22:43;;;;;;;7.20;2.20;;;;;;;15.65;100.00;100296.88;4884371;29;20426;-64
2023/09/01 05:25:54;;;;;;;5.75;2.35;;;;;;;15.70;100.00;100300.03;4896034;29;20055;-64
2023/09/01 05:28:57;;;;;;;6.68;2.22;;;;;;;15.71;100.00;100313.06;4895868;29;20132;-64
2023/09/01 05:32:00;;;;;;;8.27;2.70;;;;;;;15.69;100.00;100296.53;4896252;29;20051;-63
2023/09/01 05:35:04;;;;;;;5.43;1.98;;;;;;;15.77;100.00;100291.50;4890055;29;20418;-63
2023/09/01 05:38:09;;;;;;;5.90;2.13;;;;;;;15.80;100.00;100288.63;4872960;29;20059;-63
2023/09/01 05:41:13;;;;;;;6.35;2.30;;;;;;;15.75;100.00;100289.94;4883612;29;20116;-63
2023/09/01 05:44:16;;;;;;;5.07;1.92;;;;;;;15.77;100.00;100280.13;4883489;29;20052;-63
2023/09/01 05:47:20;;;;;;;9.45;2.47;;;;;;;15.81;100.00;100281.56;4883256;29;20517;-63
2023/09/01 05:50:24;;;;;;;3.63;1.90;;;;;;;15.79;100.00;100279.06;4884333;29;20059;-63
2023/09/01 05:53:27;;;;;;;7.30;1.80;;;;;;;15.80;99.80;100279.91;4895968;29;20048;-64
2023/09/01 05:56:30;;;;;;;6.80;2.05;;;;;;;15.86;99.72;100283.81;4896007;29;20423;-64
2023/09/01 05:59:34;;;;;;;3.92;1.92;;;;;;;15.89;99.82;100284.44;4895781;29;20563;-69
2023/09/01 06:02:37;;;;;;;4.28;1.80;;;;;;;15.83;100.00;100294.63;4895972;29;20051;-64
2023/09/01 06:05:40;;;;;;;8.23;2.10;;;;;;;15.68;100.00;100310.66;4895991;29;20111;-64
2023/09/01 06:08:44;;;;;;;4.88;1.98;;;;;;;15.66;100.00;100301.16;4895782;29;20060;-64
2023/09/01 06:11:47;;;;;;;6.45;2.17;;;;;;;15.71;100.00;100291.16;4895830;29;20177;-63
2023/09/01 06:14:51;;;;;;;3.90;1.95;;;;;;;15.84;100.00;100291.88;4895558;29;20051;-64
2023/09/01 06:17:54;;;;;;;4.65;1.50;;;;;;;15.93;100.00;100293.78;4898352;29;20143;-64
2023/09/01 06:20:58;;;;;;;4.28;1.60;;;;;;;15.98;100.00;100286.34;4899702;29;20047;-64
2023/09/01 06:24:05;;;;;;;7.80;1.88;;;;;;;15.86;100.00;100297.88;4900044;29;20419;-64
2023/09/01 06:27:09;;;;;;;4.72;1.90;;;;;;;15.74;100.00;100304.09;4887531;29;20131;-64
2023/09/01 06:30:13;;;;;;;7.10;1.70;;;;;;;15.73;100.00;100305.03;4899347;29;20050;-64
2023/09/01 06:33:16;;;;;;;4.75;1.52;;;;;;;15.84;100.00;100306.84;4899148;29;20125;-64
2023/09/01 06:36:19;;;;;;;5.10;1.58;;;;;;;15.89;100.00;100310.81;4896084;29;20068;-64
2023/09/01 06:39:23;;;;;;;5.07;2.03;;;;;;;15.93;100.00;100300.88;4887393;29;20099;-64
2023/09/01 06:42:26;;;;;;;3.10;1.52;;;;;;;15.91;100.00;100306.25;4898940;29;20064;-64
2023/09/01 06:45:29;;;;;;;3.83;1.42;;;;;;;15.89;100.00;100310.81;4899195;29;20043;-64
2023/09/01 06:48:33;;;;;;;2.53;1.35;;;;;;;15.82;100.00;100309.59;4898809;29;20107;-65
2023/09/01 06:51:36;;;;;;;4.88;1.67;;;;;;;15.77;100.00;100312.59;4898687;29;20063;-64
2023/09/01 06:54:39;;;;;;;4.10;1.52;;;;;;;15.81;100.00;100307.94;4897293;29;20059;-64
2023/09/01 06:57:43;;;;;;;3.00;1.30;;;;;;;15.68;100.00;100317.75;4898738;29;20107;-65
2023/09/01 07:00:46;;;;;;;2.65;1.58;;;;;;;15.78;100.00;100318.72;4898674;29;20132;-64
2023/09/01 07:03:50;;;;;;;3.97;1.70;;;;;;;15.87;100.00;100307.44;4898793;29;20083;-64
2023/09/01 07:06:53;;;;;;;4.13;1.30;;;;;;;15.95;100.00;100298.94;4898920;29;20100;-64
2023/09/01 07:09:56;;;;;;;2.55;1.10;;;;;;;15.93;100.00;100312.25;4897283;29;20055;-64
2023/09/01 07:13:00;;;;;;;3.78;1.85;;;;;;;15.90;100.00;100328.31;4897415;29;20176;-65
2023/09/01 07:16:04;;;;;;;3.83;2.60;;;;;;;15.80;100.00;100336.09;4886004;29;20112;-64
2023/09/01 07:19:07;;;;;;;3.25;1.90;;;;;;;15.88;100.00;100318.84;4898274;29;20071;-64
2023/09/01 07:22:11;;;;;;;6.35;1.67;;;;;;;15.99;100.00;100309.13;4897942;29;20121;-63
2023/09/01 07:25:19;;;;;;;4.03;1.40;;;;;;;15.97;100.00;100318.13;4915105;29;20505;-64
2023/09/01 07:28:23;;;;;;;3.40;1.45;;;;;;;16.01;100.00;100312.47;4916329;29;20044;-64
2023/09/01 07:31:26;;;;;;;2.85;1.10;;;;;;;16.03;100.00;100325.56;4917404;29;20526;-64
2023/09/01 07:34:29;;;;;;;2.30;0.80;;;;;;;15.98;100.00;100323.25;4916825;29;20051;-64
2023/09/01 07:37:33;;;;;;;5.50;0.85;;;;;;;16.04;100.00;100335.13;4917160;29;20047;-64
2023/09/01 07:40:36;;;;;;;3.03;0.80;;;;;;;16.09;100.00;100324.25;4917070;29;20050;-64
2023/09/01 07:43:39;;;;;;;1.85;0.70;;;;;;;16.04;100.00;100329.84;4916867;29;20578;-63
2023/09/01 07:46:43;;;;;;;1.88;0.80;;;;;;;16.07;100.00;100326.16;4916480;29;20059;-64
2023/09/01 07:49:46;;;;;;;2.85;0.90;;;;;;;16.06;100.00;100327.13;4916907;29;20566;-64
2023/09/01 07:52:51;;;;;;;2.00;0.88;;;;;;;16.10;100.00;100331.19;4916763;29;20047;-63
2023/09/01 07:55:56;;;;;;;1.77;0.68;;;;;;;16.15;100.00;100342.22;4916681;29;20527;-63
2023/09/01 07:59:01;;;;;;;9.82;8.82;;;;;;;15.88;100.00;100342.56;4916565;29;20047;-64
2023/09/01 08:02:05;;;;;;;8.35;6.07;;;;;;;16.07;100.00;100334.06;4924899;29;20090;-65
2023/09/01 08:05:09;;;;;;;2.28;0.70;;;;;;;16.18;100.00;100342.00;4898644;29;20072;-64
2023/09/01 08:08:13;;;;;;;1.35;0.40;;;;;;;16.19;100.00;100349.75;4905454;29;20104;-64
2023/09/01 08:11:17;;;;;;;2.70;0.82;;;;;;;16.21;100.00;100355.78;4896285;29;20127;-64
2023/09/01 08:14:20;;;;;;;5.40;2.10;;;;;;;16.11;100.00;100348.69;4896476;29;20070;-64
2023/09/01 08:17:23;;;;;;;3.10;0.68;;;;;;;16.13;100.00;100354.69;4897202;29;20407;-64
2023/09/01 08:20:27;;;;;;;2.10;0.80;;;;;;;16.22;100.00;100353.97;4896429;29;20066;-64
2023/09/01 08:23:32;;;;;;;1.88;0.75;;;;;;;16.36;100.00;100361.63;4884202;29;20112;-64
2023/09/01 08:26:36;;;;;;;2.10;0.80;;;;;;;16.37;100.00;100363.31;4895977;29;20567;-63
2023/09/01 08:30:17;;;;;;;1.52;0.65;;;;;;;16.38;100.00;100358.88;4906513;29;20075;-65
2023/09/01 08:33:28;;;;;;;2.75;0.50;;;;;;;16.45;100.00;100357.41;4913533;29;20599;-65
2023/09/01 08:36:32;;;;;;;1.42;0.52;;;;;;;16.55;100.00;100354.88;4913114;29;20047;-64
2023/09/01 08:39:35;;;;;;;1.58;0.52;;;;;;;16.66;100.00;100361.00;4912736;29;20047;-64
2023/09/01 08:42:48;;;;;;;4.60;0.30;;;;;;;16.80;100.00;100354.63;4914738;29;20063;-64
2023/09/01 08:45:53;;;;;;;2.05;0.40;;;;;;;16.89;100.00;100356.50;4914962;29;20079;-64
2023/09/01 08:49:00;;;;;;;1.45;0.38;;;;;;;16.88;100.00;100352.22;4915129;29;20465;-64
2023/09/01 08:52:06;;;;;;;2.08;0.40;;;;;;;16.89;100.00;100338.03;4915062;29;20055;-64
2023/09/01 08:55:12;;;;;;;3.67;0.60;;;;;;;16.89;100.00;100348.59;4914568;29;20055;-64
2023/09/01 08:58:17;;;;;;;1.85;0.52;;;;;;;16.95;100.00;100342.81;4914682;29;20366;-64
2023/09/01 09:01:22;;;;;;;0.90;0.40;;;;;;;17.04;100.00;100343.00;4915336;29;20059;-64
2023/09/01 09:04:26;;;;;;;2.65;0.57;;;;;;;17.12;100.00;100351.97;4903681;29;20055;-64
2023/09/01 09:07:30;;;;;;;2.10;0.50;;;;;;;17.28;100.00;100346.28;4914934;29;20051;-64
2023/09/01 09:10:39;;;;;;;2.25;0.70;;;;;;;17.29;100.00;100350.59;4915334;29;20126;-63
2023/09/01 09:13:42;;;;;;;1.60;0.52;;;;;;;17.36;100.00;100354.41;4914922;29;20069;-64
2023/09/01 09:16:55;;;;;;;1.83;0.38;;;;;;;17.49;100.00;100354.22;4915539;29;20055;-63
2023/09/01 09:20:04;;;;;;;2.35;0.35;;;;;;;17.58;99.45;100347.31;4915247;29;20474;-66
2023/09/01 09:23:10;;;;;;;1.58;0.50;;;;;;;17.62;100.00;100352.22;4914771;29;20059;-70
2023/09/01 09:26:13;;;;;;;3.58;0.45;;;;;;;17.59;100.00;100356.94;4911541;29;20051;-63
2023/09/01 09:29:17;;;;;;;2.15;0.40;;;;;;;17.61;100.00;100360.25;4904271;29;20078;-71
2023/09/01 09:32:22;;;;;;;0.90;0.30;;;;;;;17.74;100.00;100355.63;4912053;29;20091;-68
2023/09/01 09:35:26;;;;;;;0.75;0.40;;;;;;;17.75;99.99;100361.75;4915225;29;20051;-65
2023/09/01 09:38:40;;;;;;;0.82;0.35;;;;;;;17.79;100.00;100364.03;4915085;29;20513;-65
2023/09/01 09:41:45;;;;;;;1.58;0.50;;;;;;;17.89;100.00;100364.91;4915051;29;20103;-64
2023/09/01 09:44:50;;;;;;;1.45;0.50;;;;;;;18.00;99.98;100371.13;4915320;29;20054;-63
2023/09/01 09:48:04;;;;;;;2.13;0.60;;;;;;;18.08;99.70;100356.25;4915501;29;20072;-70
2023/09/01 09:51:10;;;;;;;1.48;0.38;;;;;;;18.13;97.25;100355.84;4914791;29;20108;-66
2023/09/01 09:54:19;;;;;;;1.42;0.38;;;;;;;18.33;100.00;100356.75;4913766;29;20520;-67
2023/09/01 09:57:24;;;;;;;0.98;0.40;;;;;;;18.48;99.21;100349.28;4918802;29;20055;-68
2023/09/01 10:00:31;;;;;;;2.15;0.77;;;;;;;18.47;99.15;100342.31;4918854;29;20216;-68
2023/09/01 10:03:35;;;;;;;1.95;0.93;;;;;;;18.61;98.45;100339.28;4918649;29;20107;-68
2023/09/01 10:06:40;;;;;;;1.05;0.40;;;;;;;18.66;98.57;100336.22;4918783;29;20093;-67
2023/09/01 10:09:44;;;;;;;1.75;0.50;;;;;;;18.79;98.13;100327.09;4918225;29;20414;-66
2023/09/01 10:12:47;;;;;;;2.15;0.60;;;;;;;18.83;98.43;100334.75;4916044;29;20058;-67
2023/09/01 10:15:51;;;;;;;2.10;0.50;;;;;;;19.02;96.87;100325.00;4917339;29;20130;-67
2023/09/01 10:18:55;;;;;;;1.70;0.50;;;;;;;18.96;99.27;100322.06;4917518;29;20086;-67
2023/09/01 10:22:03;;;;;;;2.08;0.70;;;;;;;18.97;98.53;100318.44;4916181;29;20063;-67
2023/09/01 10:25:19;;;;;;;2.65;0.95;;;;;;;19.09;99.16;100312.03;4917213;29;20514;-67
2023/09/01 10:28:23;;;;;;;3.63;1.05;;;;;;;19.10;99.95;100308.41;4904560;29;20533;-67
2023/09/01 10:31:28;;;;;;;1.48;0.50;;;;;;;19.09;100.00;100296.13;4916764;29;20463;-67
2023/09/01 10:34:32;;;;;;;2.58;0.77;;;;;;;18.93;100.00;100293.22;4917133;29;20196;-67
2023/09/01 10:37:37;;;;;;;1.73;0.55;;;;;;;18.88;100.00;100283.00;4915226;29;20114;-67
2023/09/01 10:40:50;;;;;;;2.25;0.70;;;;;;;18.77;100.00;100283.16;4915533;29;20051;-79
2023/09/01 10:43:54;;;;;;;2.58;0.68;;;;;;;18.77;100.00;100281.34;4917167;29;20418;-71
2023/09/01 10:47:31;;;;;;;3.78;0.60;;;;;;;18.66;100.00;100283.25;4915282;29;20094;-70
2023/09/01 10:50:34;;;;;;;1.67;0.60;;;;;;;18.56;100.00;100286.72;4917467;29;20103;-70
2023/09/01 10:53:38;;;;;;;2.53;0.75;;;;;;;18.63;100.00;100276.41;4915448;29;20087;-70
2023/09/01 10:56:59;;;;;;;3.50;0.80;;;;;;;18.70;100.00;100274.91;4915875;29;20047;-70
2023/09/01 11:00:26;;;;;;;3.85;0.77;;;;;;;18.59;100.00;100285.63;4915929;29;20642;-70
2023/09/01 11:03:31;;;;;;;5.22;4.00;;;;;;;18.45;100.00;100286.84;4916549;29;20055;-70
2023/09/01 11:07:00;;;;;;;4.18;1.40;;;;;;;18.42;100.00;100275.72;4917040;29;20084;-71
2023/09/01 11:10:03;;;;;;;5.15;1.10;;;;;;;18.49;100.00;100282.13;4915661;29;20047;-70
2023/09/01 11:13:17;;;;;;;5.40;1.10;;;;;;;18.47;100.00;100274.31;4916222;29;20123;-70
2023/09/01 11:16:21;;;;;;;4.15;0.82;;;;;;;18.48;100.00;100269.88;4915281;29;20499;-70
2023/09/01 11:19:26;;;;;;;2.55;0.95;;;;;;;18.50;100.00;100267.91;4915755;29;20050;-70
2023/09/01 11:22:29;;;;;;;4.00;0.80;;;;;;;18.48;100.00;100272.53;4916576;29;20070;-72
2023/09/01 11:25:33;;;;;;;3.63;1.05;;;;;;;18.53;100.00;100278.22;4916659;29;20099;-71
2023/09/01 11:28:39;;;;;;;6.72;1.33;;;;;;;18.42;100.00;100270.41;4914508;29;20143;-71
2023/09/01 11:31:43;;;;;;;6.00;1.30;;;;;;;18.36;100.00;100269.97;4915413;29;20094;-71
2023/09/01 11:34:49;;;;;;;6.72;1.50;;;;;;;18.30;100.00;100273.16;4915917;29;20418;-71
2023/09/01 11:37:53;;;;;;;4.75;1.58;;;;;;;18.49;100.00;100261.78;4904753;29;20046;-71
2023/09/01 11:40:59;;;;;;;2.70;1.10;;;;;;;18.38;100.00;100274.28;4916765;29;20043;-71
2023/09/01 11:44:02;;;;;;;3.53;1.10;;;;;;;18.33;100.00;100288.78;4914844;29;20386;-71
2023/09/01 11:47:12;;;;;;;4.70;1.05;;;;;;;18.26;100.00;100292.94;4915030;29;20522;-71
2023/09/01 11:50:15;;;;;;;2.08;0.82;;;;;;;18.31;100.00;100301.31;4914254;29;20042;-71
2023/09/01 11:53:29;;;;;;;2.40;0.50;;;;;;;18.51;100.00;100301.38;4914795;29;20047;-72
2023/09/01 11:56:33;;;;;;;2.00;0.60;;;;;;;18.66;100.00;100289.38;4916184;29;20513;-72
2023/09/01 11:59:48;;;;;;;0.50;0.20;;;;;;;18.75;100.00;100293.88;4915640;29;20108;-72
2023/09/01 12:02:53;;;;;;;1.77;0.75;;;;;;;19.09;100.00;100298.78;4904118;29;20110;-72
2023/09/01 12:05:56;;;;;;;1.35;0.40;;;;;;;19.33;100.00;100294.84;4915259;29;20046;-72
2023/09/01 12:09:11;;;;;;;1.17;0.40;;;;;;;19.32;99.31;100301.13;4915630;29;20134;-71
2023/09/01 12:12:15;;;;;;;2.83;0.40;;;;;;;19.47;100.00;100299.69;4914844;29;20183;-71
2023/09/01 12:15:18;;;;;;;1.98;0.50;;;;;;;19.42;99.47;100302.78;4914550;29;20076;-70
2023/09/01 12:18:39;;;;;;;0.52;0.20;;;;;;;19.52;97.33;100302.75;4915439;29;20172;-70
2023/09/01 12:21:43;;;;;;;0.80;0.30;;;;;;;19.44;97.31;100300.81;4915601;29;20131;-72
2023/09/01 12:24:54;;;;;;;1.27;0.40;;;;;;;19.54;95.07;100308.75;4913547;29;20417;-70
2023/09/01 12:27:58;;;;;;;1.60;0.40;;;;;;;19.58;96.63;100314.59;4915140;29;20055;-74
2023/09/01 12:31:04;;;;;;;10.80;2.78;;;;;;;19.58;97.65;100312.78;4915352;29;20038;-64
2023/09/01 12:34:07;;;;;;;1.85;0.98;;;;;;;19.79;97.63;100319.75;4913421;29;20070;-65
2023/09/01 12:37:11;;;;;;;1.30;0.50;;;;;;;19.79;95.59;100319.75;4914479;29;20039;-65
2023/09/01 12:40:14;;;;;;;2.17;1.08;;;;;;;20.39;91.76;100317.53;4914350;29;20078;-66
2023/09/01 12:43:17;;;;;;;3.85;1.75;;;;;;;20.11;90.67;100324.66;4915003;29;20111;-64
2023/09/01 12:46:21;;;;;;;9.13;3.05;;;;;;;20.43;90.98;100318.91;4915323;29;20103;-64
2023/09/01 12:49:25;;;;;;;1.75;0.65;;;;;;;19.85;92.76;100332.44;4912851;29;20087;-64
2023/09/01 12:52:27;;;;;;;1.88;0.68;;;;;;;19.66;93.03;100323.56;4913178;29;20103;-64
2023/09/01 12:55:31;;;;;;;1.40;0.60;;;;;;;19.59;93.10;100322.44;4913569;29;20110;-64
2023/09/01 12:58:34;;;;;;;4.15;1.30;;;;;;;19.60;95.72;100320.63;4918777;29;20039;-65
2023/09/01 13:01:38;;;;;;;5.90;3.53;;;;;;;19.51;96.06;100317.00;4915841;29;20051;-65
2023/09/01 13:04:43;;;;;;;4.47;1.85;;;;;;;19.58;96.78;100327.88;4913707;29;20126;-65
2023/09/01 13:07:51;;;;;;;6.47;4.00;;;;;;;19.46;99.16;100335.13;4913941;29;20082;-65
2023/09/01 13:10:58;;;;;;;7.15;5.07;;;;;;;19.32;100.00;100343.53;4912973;29;20039;-65
2023/09/01 13:14:01;;;;;;;9.73;8.60;;;;;;;19.27;100.00;100336.84;4913065;29;20119;-65
2023/09/01 13:17:04;;;;;;;8.13;6.22;;;;;;;19.25;100.00;100337.97;4915378;29;20055;-65
2023/09/01 13:20:08;;;;;;;2.97;1.02;;;;;;;19.15;100.00;100340.63;4915025;29;20141;-65
2023/09/01 13:23:12;;;;;;;2.92;0.88;;;;;;;19.21;100.00;100340.06;4915274;29;20047;-64
2023/09/01 13:26:15;;;;;;;2.75;0.70;;;;;;;18.99;100.00;100333.22;4915143;29;20083;-65
2023/09/01 13:29:19;;;;;;;2.20;0.63;;;;;;;19.11;100.00;100331.25;4914847;29;20055;-64
2023/09/01 13:32:24;;;;;;;1.80;0.63;;;;;;;19.22;100.00;100330.28;4913691;29;20179;-66
2023/09/01 13:35:29;;;;;;;3.45;0.57;;;;;;;19.51;100.00;100330.25;4926345;29;20481;-65
2023/09/01 13:38:33;;;;;;;3.90;0.70;;;;;;;20.14;97.24;100330.50;4914240;29;20062;-64
2023/09/01 13:41:40;;;;;;;1.45;0.57;;;;;;;20.12;94.35;100324.50;4912225;29;20517;-65
2023/09/01 13:44:43;;;;;;;2.20;0.60;;;;;;;19.65;97.00;100340.44;4914004;29;20051;-65
2023/09/01 13:47:46;;;;;;;2.92;0.55;;;;;;;19.68;96.93;100339.31;4913799;29;20047;-64
2023/09/01 13:50:50;;;;;;;2.65;0.70;;;;;;;19.47;95.63;100342.13;4915310;29;20127;-64
2023/09/01 13:53:57;;;;;;;5.95;0.85;;;;;;;19.56;98.72;100333.31;4915089;29;20622;-64
2023/09/01 13:57:00;;;;;;;1.52;0.40;;;;;;;19.76;97.41;100335.97;4915069;29;20067;-64
2023/09/01 14:00:07;;;;;;;1.90;0.40;;;;;;;19.43;97.34;100330.97;4915033;29;20473;-64
2023/09/01 14:03:10;;;;;;;3.38;0.55;;;;;;;19.53;97.95;100325.66;4915193;29;20054;-65
2023/09/01 14:06:13;;;;;;;1.65;0.52;;;;;;;19.47;97.03;100332.34;4906895;29;20066;-65
2023/09/01 14:09:18;;;;;;;2.55;0.85;;;;;;;19.32;97.62;100335.59;4913473;29;20099;-65
2023/09/01 14:12:23;;;;;;;2.53;1.05;;;;;;;19.28;99.26;100335.03;4913604;29;20651;-64
2023/09/01 14:15:26;;;;;;;3.80;1.23;;;;;;;19.38;100.00;100332.38;4911638;29;20144;-64
2023/09/01 14:18:29;;;;;;;2.42;0.60;;;;;;;19.34;100.00;100341.59;4912166;29;20048;-64